Time;durP1;ratioP1;P1;durP2;ratioP2;P2;SDS_P1;SDS_P2;PMS_P1;PMS_P2;Temp;Humidity;BMP_temperature;BMP_pressure;BME280_temperature;BME280_humidity;BME280_pressure;Samples;Min_cycle;Max_cycle;Signal;HPM_P1;HPM_P2
2022/12/13 00:01:02;;;;;;;3.17;1.65;;;24.30;52.30;;;;;;5013235;28;20201;-38
2022/12/13 00:03:33;;;;;;;5.30;2.08;;;24.30;52.40;;;;;;5013303;28;20200;-39
2022/12/13 00:06:06;;;;;;;3.85;1.88;;;24.30;52.30;;;;;;5013962;28;20634;-40
2022/12/13 00:08:37;;;;;;;4.22;1.75;;;24.30;52.40;;;;;;5024123;28;20196;-38
2022/12/13 00:11:10;;;;;;;4.85;2.05;;;24.30;52.30;;;;;;5013362;28;20204;-41
2022/12/13 00:13:41;;;;;;;4.35;1.95;;;24.40;52.50;;;;;;5005756;28;20209;-39
2022/12/13 00:16:16;;;;;;;3.47;1.80;;;24.40;52.40;;;;;;5013956;28;20217;-39
2022/12/13 00:18:50;;;;;;;3.95;1.85;;;24.40;52.30;;;;;;5012857;28;20307;-40
2022/12/13 00:21:22;;;;;;;3.97;1.77;;;24.50;52.40;;;;;;4994092;28;20825;-42
2022/12/13 00:23:53;;;;;;;5.63;2.10;;;24.50;52.40;;;;;;5000910;28;20203;-38
2022/12/13 00:26:28;;;;;;;6.72;2.20;;;24.50;52.30;;;;;;5013306;28;20228;-42
2022/12/13 00:29:00;;;;;;;4.40;2.20;;;24.50;52.40;;;;;;5013175;28;20204;-41
2022/12/13 00:31:34;;;;;;;4.80;1.77;;;24.50;52.40;;;;;;5013356;28;20208;-43
2022/12/13 00:34:05;;;;;;;3.92;2.20;;;24.60;52.50;;;;;;5013377;28;20283;-39
2022/12/13 00:36:36;;;;;;;3.97;1.85;;;24.50;52.50;;;;;;5013648;28;20221;-40
2022/12/13 00:39:07;;;;;;;4.57;1.98;;;24.60;52.50;;;;;;5013034;28;20248;-41
2022/12/13 00:41:39;;;;;;;4.57;1.90;;;24.60;52.50;;;;;;5013061;28;20561;-41
2022/12/13 00:44:10;;;;;;;3.60;2.00;;;24.70;52.50;;;;;;5012960;28;20716;-40
2022/12/13 00:46:44;;;;;;;4.20;1.98;;;24.70;52.50;;;;;;5012521;28;20232;-45
2022/12/13 00:49:15;;;;;;;4.32;1.83;;;24.70;52.60;;;;;;5012338;28;20208;-49
2022/12/13 00:51:48;;;;;;;5.15;2.03;;;24.70;52.50;;;;;;5012927;28;20283;-46
2022/12/13 00:54:19;;;;;;;5.43;2.00;;;24.70;52.60;;;;;;5012520;28;20227;-39
2022/12/13 00:56:50;;;;;;;5.30;2.40;;;24.70;52.60;;;;;;5012784;28;20240;-49
2022/12/13 00:59:21;;;;;;;5.03;2.05;;;24.80;52.70;;;;;;5012968;28;20619;-46
2022/12/13 01:01:54;;;;;;;6.18;2.25;;;24.80;52.60;;;;;;5012711;28;20216;-39
2022/12/13 01:04:25;;;;;;;5.25;1.95;;;24.80;52.60;;;;;;5012517;28;20197;-40
2022/12/13 01:06:56;;;;;;;6.20;2.30;;;24.80;52.50;;;;;;5015657;28;20220;-42
2022/12/13 01:09:29;;;;;;;5.05;1.90;;;24.80;52.40;;;;;;5013013;28;20211;-44
2022/12/13 01:12:01;;;;;;;6.55;1.88;;;24.90;52.50;;;;;;5012767;28;20735;-42
2022/12/13 01:14:33;;;;;;;5.22;1.90;;;24.90;52.40;;;;;;5014648;28;20193;-42
2022/12/13 01:17:06;;;;;;;4.10;2.08;;;24.90;52.40;;;;;;5012569;28;20221;-42
2022/12/13 01:19:36;;;;;;;4.63;2.08;;;24.90;52.40;;;;;;5012484;28;20189;-45
2022/12/13 01:22:10;;;;;;;5.18;2.03;;;24.90;52.30;;;;;;5012522;28;20200;-40
2022/12/13 01:24:40;;;;;;;4.38;1.60;;;24.90;52.40;;;;;;5012080;28;20200;-41
2022/12/13 01:27:11;;;;;;;5.13;1.80;;;25.00;52.40;;;;;;5012341;28;20216;-42
2022/12/13 01:29:42;;;;;;;3.70;2.00;;;24.90;52.40;;;;;;5012143;28;20672;-41
2022/12/13 01:32:14;;;;;;;2.95;1.70;;;24.90;52.30;;;;;;5012508;28;20205;-40
2022/12/13 01:34:45;;;;;;;5.25;1.98;;;25.00;52.40;;;;;;5013164;28;20209;-43
2022/12/13 01:37:19;;;;;;;2.88;1.90;;;25.00;52.30;;;;;;5006646;28;20216;-43
2022/12/13 01:39:49;;;;;;;6.53;1.85;;;25.00;52.30;;;;;;5008444;28;20680;-44
2022/12/13 01:42:20;;;;;;;4.90;2.17;;;25.00;52.30;;;;;;5011511;28;20196;-41
2022/12/13 01:45:29;;;;;;;3.35;1.60;;;25.00;52.30;;;;;;4994712;28;20197;-41
2022/12/13 01:48:06;;;;;;;2.92;2.00;;;25.10;52.20;;;;;;5005447;28;20204;-40
2022/12/13 01:50:40;;;;;;;3.38;1.80;;;25.10;52.20;;;;;;5012068;28;20204;-40
2022/12/13 01:53:15;;;;;;;3.95;1.80;;;25.10;52.10;;;;;;5011967;28;20193;-39
2022/12/13 01:55:49;;;;;;;3.67;1.70;;;25.10;52.20;;;;;;5000627;28;20620;-38
2022/12/13 01:58:20;;;;;;;3.92;1.88;;;25.10;52.20;;;;;;5009190;28;20581;-41
2022/12/13 02:00:52;;;;;;;4.57;1.92;;;25.10;52.20;;;;;;5011968;28;20218;-43
2022/12/13 02:03:25;;;;;;;3.28;1.92;;;25.20;52.20;;;;;;5023918;28;20197;-40
2022/12/13 02:06:00;;;;;;;4.95;2.00;;;25.20;52.30;;;;;;5021317;28;20228;-40
2022/12/13 02:08:31;;;;;;;4.88;1.90;;;25.20;52.30;;;;;;5010152;28;20203;-41
2022/12/13 02:11:03;;;;;;;5.53;1.90;;;25.20;52.30;;;;;;5010798;28;20562;-39
2022/12/13 02:13:33;;;;;;;5.40;2.15;;;25.10;52.20;;;;;;5011269;28;20196;-40
2022/12/13 02:16:13;;;;;;;6.30;2.30;;;25.20;52.20;;;;;;4992040;28;20701;-39
2022/12/13 02:19:05;;;;;;;3.00;1.45;;;25.20;52.30;;;;;;5011358;28;20644;-41
2022/12/13 02:21:48;;;;;;;4.45;1.90;;;25.20;52.10;;;;;;5010742;28;20196;-41
2022/12/13 02:24:46;;;;;;;4.80;1.77;;;25.20;52.10;;;;;;5011539;28;20197;-45
2022/12/13 02:27:45;;;;;;;5.05;2.00;;;25.30;52.10;;;;;;5011130;28;20220;-39
2022/12/13 02:30:30;;;;;;;3.55;1.63;;;25.30;52.00;;;;;;5011104;28;20204;-42
2022/12/13 02:33:23;;;;;;;5.68;1.90;;;25.30;52.00;;;;;;5008504;28;20201;-49
2022/12/13 02:36:02;;;;;;;5.82;1.95;;;25.30;51.90;;;;;;5010895;28;20225;-41
2022/12/13 02:38:40;;;;;;;5.43;1.90;;;25.40;52.00;;;;;;5010454;28;20216;-44
2022/12/13 02:41:18;;;;;;;3.30;1.52;;;25.40;52.00;;;;;;5010661;28;20236;-40
2022/12/13 02:43:55;;;;;;;5.45;2.00;;;25.40;51.90;;;;;;5011005;28;20192;-47
2022/12/13 02:46:30;;;;;;;4.35;1.90;;;25.40;51.90;;;;;;5011199;28;20680;-45
2022/12/13 02:49:03;;;;;;;5.93;2.05;;;25.40;51.90;;;;;;5004477;28;20207;-42
2022/12/13 02:51:35;;;;;;;5.20;2.00;;;25.50;51.90;;;;;;5010962;28;20200;-44
2022/12/13 02:54:06;;;;;;;2.47;1.65;;;25.50;51.80;;;;;;5011443;28;20671;-41
2022/12/13 02:56:37;;;;;;;3.58;1.88;;;25.50;51.80;;;;;;5010574;28;20688;-40
2022/12/13 02:59:13;;;;;;;3.88;1.70;;;25.50;51.80;;;;;;5010608;28;20780;-43
2022/12/13 03:01:56;;;;;;;3.40;1.67;;;25.60;51.80;;;;;;5010258;28;20208;-41
2022/12/13 03:06:28;;;;;;;2.92;1.52;;;25.60;51.70;;;;;;5013255;28;20189;-43
2022/12/13 03:07:38;;;;;;;4.63;1.92;;;25.60;51.70;;;;;;5010238;28;20188;-43
2022/12/13 03:10:16;;;;;;;5.22;1.88;;;25.60;51.70;;;;;;5030433;28;20196;-45
2022/12/13 03:15:46;;;;;;;3.65;1.60;;;25.70;51.70;;;;;;5010767;28;20716;-40
2022/12/13 03:18:22;;;;;;;5.95;2.10;;;25.80;51.70;;;;;;5010374;28;20722;-41
2022/12/13 03:20:56;;;;;;;5.07;2.17;;;25.70;51.70;;;;;;5010917;28;20207;-39
2022/12/13 03:23:28;;;;;;;2.92;1.90;;;25.80;51.70;;;;;;5010666;28;20200;-40
2022/12/13 03:26:03;;;;;;;4.70;1.80;;;25.80;51.70;;;;;;5010703;28;20223;-39
2022/12/13 03:28:33;;;;;;;3.45;1.80;;;25.80;51.70;;;;;;5010231;28;20204;-41
2022/12/13 03:31:04;;;;;;;4.55;1.75;;;25.90;51.70;;;;;;5010533;28;20212;-42
2022/12/13 03:33:38;;;;;;;3.03;1.40;;;25.90;51.60;;;;;;5010769;28;20395;-39
2022/12/13 03:36:09;;;;;;;4.32;1.98;;;25.90;51.60;;;;;;5010385;28;20278;-39
2022/12/13 03:38:43;;;;;;;5.22;2.17;;;25.90;51.60;;;;;;5010084;28;20225;-40
2022/12/13 03:41:17;;;;;;;4.15;1.80;;;26.00;51.60;;;;;;5010125;28;20203;-39
2022/12/13 03:43:48;;;;;;;4.32;1.90;;;26.00;51.60;;;;;;5010214;28;20201;-39
2022/12/13 03:46:19;;;;;;;3.65;1.90;;;26.10;51.70;;;;;;5010316;28;20212;-39
2022/12/13 03:48:51;;;;;;;4.60;2.22;;;26.10;51.60;;;;;;5010752;28;20211;-41
2022/12/13 03:51:22;;;;;;;5.18;1.83;;;26.10;51.60;;;;;;5005596;28;20200;-39
2022/12/13 03:53:53;;;;;;;3.40;1.60;;;26.10;51.60;;;;;;5012556;28;20281;-39
2022/12/13 03:56:23;;;;;;;4.20;1.95;;;26.10;51.50;;;;;;5017062;28;20825;-39
2022/12/13 03:58:54;;;;;;;4.07;1.85;;;26.20;51.50;;;;;;4989756;28;20217;-37
2022/12/13 04:01:25;;;;;;;4.10;2.05;;;26.20;51.50;;;;;;5009630;28;20205;-36
2022/12/13 04:03:57;;;;;;;4.38;1.70;;;26.20;51.40;;;;;;5009423;28;20204;-37
2022/12/13 04:06:28;;;;;;;6.97;2.08;;;26.20;51.50;;;;;;5009559;28;20223;-37
2022/12/13 04:08:59;;;;;;;3.35;1.90;;;26.20;51.50;;;;;;5004185;28;20641;-38
2022/12/13 04:14:16;;;;;;;4.07;1.98;;;26.30;51.60;;;;;;5009747;28;20204;-37
2022/12/13 04:16:47;;;;;;;3.78;2.00;;;26.40;51.60;;;;;;5009545;28;20224;-37
2022/12/13 04:19:19;;;;;;;5.95;2.35;;;26.40;51.70;;;;;;5011159;28;20230;-38
2022/12/13 04:21:50;;;;;;;6.55;2.22;;;26.40;51.70;;;;;;5013844;28;20656;-37
2022/12/13 04:24:21;;;;;;;3.80;1.98;;;26.40;51.70;;;;;;5013435;28;20197;-38
2022/12/13 04:26:51;;;;;;;6.35;2.30;;;26.40;51.70;;;;;;5012947;28;20702;-37
2022/12/13 04:29:22;;;;;;;6.97;2.38;;;26.50;51.70;;;;;;5013371;28;20196;-40
2022/12/13 04:31:53;;;;;;;8.90;2.33;;;26.50;51.70;;;;;;5013015;28;20193;-37
2022/12/13 04:34:25;;;;;;;5.85;2.17;;;26.50;51.70;;;;;;5013427;28;20558;-37
2022/12/13 04:36:57;;;;;;;8.55;2.35;;;26.50;51.60;;;;;;5012610;28;20232;-37
2022/12/13 04:39:27;;;;;;;7.13;2.40;;;26.50;51.60;;;;;;5012592;28;20233;-39
2022/12/13 04:41:58;;;;;;;7.18;2.58;;;26.50;51.60;;;;;;5012684;28;20197;-40
2022/12/13 04:44:29;;;;;;;5.63;2.67;;;26.50;51.60;;;;;;5013856;28;20201;-37
2022/12/13 04:47:01;;;;;;;7.25;2.72;;;26.50;51.60;;;;;;5008725;28;20216;-37
2022/12/13 04:49:34;;;;;;;18.58;6.10;;;26.60;51.70;;;;;;5010604;28;20209;-37
2022/12/13 04:52:06;;;;;;;18.70;4.80;;;26.60;51.70;;;;;;5012593;28;20695;-37
2022/12/13 04:54:36;;;;;;;23.42;7.53;;;26.60;51.60;;;;;;5012229;28;20559;-37
2022/12/13 04:57:09;;;;;;;27.50;7.95;;;26.60;51.60;;;;;;5012489;28;20213;-42
2022/12/13 04:59:40;;;;;;;30.67;8.52;;;26.60;51.60;;;;;;5012456;28;20316;-37
2022/12/13 05:02:12;;;;;;;28.58;7.30;;;26.60;51.60;;;;;;5012116;28;20192;-42
2022/12/13 05:04:46;;;;;;;26.30;7.13;;;26.70;51.50;;;;;;5013237;28;20751;-38
2022/12/13 05:07:17;;;;;;;20.83;6.35;;;26.70;51.50;;;;;;5012894;28;20224;-37
2022/12/13 05:09:47;;;;;;;19.83;5.97;;;26.70;51.50;;;;;;5014603;28;20193;-37
2022/12/13 05:12:18;;;;;;;24.88;6.05;;;26.70;51.50;;;;;;5012830;28;20197;-37
2022/12/13 05:14:49;;;;;;;21.67;5.60;;;26.70;51.40;;;;;;5012836;28;20537;-37
2022/12/13 05:17:19;;;;;;;18.10;5.15;;;26.70;51.40;;;;;;5013937;28;20219;-38
2022/12/13 05:19:52;;;;;;;16.23;5.25;;;26.70;51.50;;;;;;5012075;28;20225;-55
2022/12/13 05:22:23;;;;;;;12.32;3.40;;;26.70;51.50;;;;;;5011569;28;20251;-39
2022/12/13 05:24:53;;;;;;;13.32;4.00;;;26.70;51.20;;;;;;5012094;28;20204;-39
2022/12/13 05:27:24;;;;;;;29.50;5.40;;;26.70;51.40;;;;;;5011867;28;20193;-39
2022/12/13 05:29:55;;;;;;;17.92;4.15;;;26.60;51.40;;;;;;5012603;28;20562;-39
2022/12/13 05:32:26;;;;;;;17.50;3.58;;;26.60;51.50;;;;;;5011459;28;20204;-39
2022/12/13 05:34:58;;;;;;;21.20;3.55;;;26.60;51.50;;;;;;5012749;28;20209;-38
2022/12/13 05:37:29;;;;;;;13.48;3.53;;;26.70;52.10;;;;;;5012270;28;20204;-39
2022/12/13 05:40:00;;;;;;;14.57;3.55;;;26.70;51.40;;;;;;5011606;28;20232;-39
2022/12/13 05:42:31;;;;;;;13.45;3.90;;;26.70;51.40;;;;;;5011844;28;20219;-38
2022/12/13 05:45:01;;;;;;;14.88;3.85;;;26.70;51.30;;;;;;5009951;28;20209;-38
2022/12/13 05:47:32;;;;;;;11.98;3.85;;;26.70;51.40;;;;;;5005668;28;20197;-38
2022/12/13 05:50:05;;;;;;;11.48;3.40;;;26.70;51.30;;;;;;5010979;28;20207;-39
2022/12/13 05:52:35;;;;;;;8.90;3.47;;;26.70;51.30;;;;;;5011726;28;20189;-39
2022/12/13 05:55:07;;;;;;;11.45;3.42;;;26.80;51.30;;;;;;5011292;28;20570;-39
2022/12/13 05:57:38;;;;;;;13.95;3.90;;;26.80;51.20;;;;;;5011628;28;20200;-38
2022/12/13 06:00:11;;;;;;;13.00;3.30;;;26.80;51.20;;;;;;5011326;28;20239;-39
2022/12/13 06:02:42;;;;;;;14.20;3.70;;;26.80;51.10;;;;;;5011472;28;20203;-39
2022/12/13 06:05:16;;;;;;;11.27;3.38;;;26.80;51.00;;;;;;5009514;28;20224;-38
2022/12/13 06:07:46;;;;;;;14.32;3.40;;;26.80;51.00;;;;;;5010945;28;20564;-39
2022/12/13 06:10:18;;;;;;;9.32;3.20;;;26.80;51.00;;;;;;5011185;28;20203;-39
2022/12/13 06:12:48;;;;;;;10.10;3.45;;;26.90;51.00;;;;;;5010560;28;20280;-39
2022/12/13 06:15:19;;;;;;;10.30;3.47;;;26.90;51.50;;;;;;5011134;28;20228;-40
2022/12/13 06:17:50;;;;;;;8.25;2.97;;;26.90;50.80;;;;;;5011087;28;20197;-39
2022/12/13 06:20:23;;;;;;;10.32;3.40;;;26.90;50.80;;;;;;5010067;28;20224;-44
2022/12/13 06:22:54;;;;;;;10.15;3.50;;;26.90;50.70;;;;;;5010968;28;20259;-39
2022/12/13 06:25:25;;;;;;;7.35;2.80;;;26.90;50.60;;;;;;5011323;28;20216;-40
2022/12/13 06:27:56;;;;;;;6.80;2.75;;;27.00;50.70;;;;;;5011008;28;20195;-39
2022/12/13 06:30:27;;;;;;;8.00;2.95;;;26.90;50.60;;;;;;5011019;28;20209;-38
2022/12/13 06:32:58;;;;;;;10.48;2.80;;;26.90;50.60;;;;;;5010164;28;20573;-43
2022/12/13 06:35:31;;;;;;;8.13;2.80;;;26.90;50.60;;;;;;5012145;28;20229;-38
2022/12/13 06:38:02;;;;;;;8.45;2.85;;;26.90;50.50;;;;;;4991971;28;20201;-40
2022/12/13 06:40:35;;;;;;;7.32;2.90;;;27.00;50.50;;;;;;4991608;28;20257;-41
2022/12/13 06:43:06;;;;;;;8.40;2.90;;;27.00;50.50;;;;;;4991395;28;20193;-39
2022/12/13 06:45:41;;;;;;;5.10;2.67;;;27.00;50.50;;;;;;4991401;28;20225;-39
2022/12/13 06:48:12;;;;;;;6.70;2.65;;;27.00;50.50;;;;;;4992002;28;20657;-39
2022/12/13 06:50:44;;;;;;;9.13;2.67;;;27.00;50.40;;;;;;4991820;28;20212;-39
2022/12/13 06:53:15;;;;;;;8.68;3.08;;;27.00;50.40;;;;;;4991558;28;20197;-39
2022/12/13 06:55:46;;;;;;;6.57;2.80;;;27.00;50.30;;;;;;4991555;28;20217;-39
2022/12/13 06:58:16;;;;;;;7.45;2.95;;;27.00;50.20;;;;;;4991629;28;20570;-40
2022/12/13 07:00:48;;;;;;;7.22;2.90;;;27.00;50.20;;;;;;5001168;28;20240;-39
2022/12/13 07:03:18;;;;;;;6.05;2.40;;;27.00;50.20;;;;;;5011099;28;20564;-39
2022/12/13 07:05:51;;;;;;;5.97;2.60;;;27.00;50.20;;;;;;5013235;28;20216;-39
2022/12/13 07:08:22;;;;;;;5.75;2.70;;;27.00;50.20;;;;;;5011214;28;20196;-38
2022/12/13 07:10:54;;;;;;;6.43;2.40;;;27.00;50.20;;;;;;5011232;28;20205;-41
2022/12/13 07:13:25;;;;;;;5.75;2.53;;;27.00;50.20;;;;;;5010307;28;20201;-41
2022/12/13 07:15:56;;;;;;;6.03;2.35;;;27.00;50.20;;;;;;5010691;28;20228;-40
2022/12/13 07:18:27;;;;;;;5.68;2.50;;;27.00;50.20;;;;;;5011325;28;20201;-38
2022/12/13 07:20:59;;;;;;;7.93;2.47;;;27.00;50.20;;;;;;5011375;28;20243;-39
2022/12/13 07:23:30;;;;;;;6.55;2.58;;;27.00;50.10;;;;;;5011257;28;20199;-39
2022/12/13 07:26:01;;;;;;;7.03;2.70;;;27.00;50.10;;;;;;5013291;28;20689;-40
2022/12/13 07:28:34;;;;;;;5.10;2.45;;;27.00;50.10;;;;;;4991001;28;20205;-38
2022/12/13 07:31:06;;;;;;;6.03;2.63;;;26.90;50.00;;;;;;5002917;28;20234;-38
2022/12/13 07:33:40;;;;;;;8.25;2.55;;;26.90;50.00;;;;;;5010516;28;20212;-38
2022/12/13 07:36:16;;;;;;;8.25;2.60;;;26.90;50.00;;;;;;5010996;28;20224;-40
2022/12/13 07:38:51;;;;;;;5.95;2.38;;;26.90;50.00;;;;;;5010973;28;20203;-41
2022/12/13 07:41:22;;;;;;;5.97;2.35;;;26.90;50.10;;;;;;5010918;28;20224;-42
2022/12/13 07:43:52;;;;;;;5.47;2.38;;;26.80;50.00;;;;;;5010984;28;20201;-40
2022/12/13 07:46:23;;;;;;;5.93;2.10;;;26.80;50.00;;;;;;5010862;28;20216;-43
2022/12/13 07:48:54;;;;;;;7.60;2.60;;;26.80;50.00;;;;;;5010925;28;20211;-41
2022/12/13 07:51:27;;;;;;;6.47;2.40;;;26.80;50.10;;;;;;5010725;28;20615;-41
2022/12/13 07:53:58;;;;;;;5.88;2.67;;;26.70;50.10;;;;;;5011094;28;20201;-40
2022/12/13 07:56:29;;;;;;;6.50;2.47;;;26.70;50.10;;;;;;5014343;28;20231;-44
2022/12/13 07:59:00;;;;;;;6.75;2.90;;;26.70;50.10;;;;;;5014565;28;20223;-42
2022/12/13 08:01:33;;;;;;;4.50;2.40;;;26.70;50.10;;;;;;5014860;28;20236;-41
2022/12/13 08:04:04;;;;;;;6.68;2.47;;;26.70;50.10;;;;;;5014380;28;20675;-39
2022/12/13 08:06:40;;;;;;;5.00;2.25;;;26.60;50.10;;;;;;5014318;28;20231;-41
2022/12/13 08:09:11;;;;;;;4.30;2.15;;;26.60;50.10;;;;;;5014031;28;20607;-39
2022/12/13 08:11:41;;;;;;;7.28;2.65;;;26.60;50.10;;;;;;5009937;28;20189;-39
2022/12/13 08:14:12;;;;;;;6.72;2.55;;;26.60;50.10;;;;;;5013804;28;20203;-44
2022/12/13 08:16:43;;;;;;;7.57;3.00;;;26.50;50.10;;;;;;5013531;28;20209;-39
2022/12/13 08:19:14;;;;;;;5.20;2.42;;;26.50;50.10;;;;;;5013549;28;20661;-40
2022/12/13 08:21:47;;;;;;;7.18;2.97;;;26.50;50.10;;;;;;5013694;28;20283;-41
2022/12/13 08:24:18;;;;;;;6.90;2.47;;;26.50;50.10;;;;;;5013317;28;20207;-44
2022/12/13 08:26:49;;;;;;;7.13;2.72;;;26.40;50.10;;;;;;5013547;28;20684;-39
2022/12/13 08:29:20;;;;;;;8.65;3.13;;;26.40;50.10;;;;;;5006642;28;20193;-38
2022/12/13 08:31:50;;;;;;;10.30;3.65;;;26.40;50.20;;;;;;5013823;28;20197;-38
2022/12/13 08:34:21;;;;;;;8.48;3.15;;;26.40;50.30;;;;;;5033022;28;20200;-38
2022/12/13 08:36:54;;;;;;;9.10;3.15;;;26.30;50.20;;;;;;5020022;28;20231;-38
2022/12/13 08:39:24;;;;;;;7.13;3.03;;;26.30;50.30;;;;;;5013512;28;20220;-38
2022/12/13 08:41:55;;;;;;;6.95;3.00;;;26.30;50.30;;;;;;5012621;28;20197;-38
2022/12/13 08:44:26;;;;;;;9.50;3.33;;;26.30;50.30;;;;;;5012232;28;20220;-39
2022/12/13 08:46:57;;;;;;;8.23;3.03;;;26.30;50.30;;;;;;5012513;28;20217;-42
2022/12/13 08:49:27;;;;;;;10.10;3.25;;;26.20;50.20;;;;;;5013183;28;20208;-38
2022/12/13 08:52:00;;;;;;;6.18;2.75;;;26.20;50.30;;;;;;5011779;28;20211;-38
2022/12/13 08:54:34;;;;;;;9.45;3.05;;;26.20;50.30;;;;;;5012625;28;20204;-42
2022/12/13 08:57:04;;;;;;;8.75;2.95;;;26.20;50.30;;;;;;5012902;28;20212;-39
2022/12/13 08:59:35;;;;;;;7.60;2.90;;;26.10;50.20;;;;;;5012561;28;20199;-38
2022/12/13 09:02:06;;;;;;;8.82;3.10;;;26.10;50.80;;;;;;5006296;28;20189;-38
2022/12/13 09:04:37;;;;;;;8.38;3.00;;;26.10;50.20;;;;;;5012090;28;20205;-38
2022/12/13 09:07:10;;;;;;;6.35;3.08;;;26.10;50.20;;;;;;5007555;28;20220;-38
2022/12/13 09:09:41;;;;;;;8.15;3.00;;;26.00;50.20;;;;;;5012613;28;20207;-40
2022/12/13 09:12:11;;;;;;;6.88;2.97;;;26.00;50.20;;;;;;5012145;28;20193;-39
2022/12/13 09:14:42;;;;;;;8.18;3.17;;;26.00;50.20;;;;;;5014709;28;20567;-38
2022/12/13 09:17:13;;;;;;;5.85;2.70;;;26.00;50.20;;;;;;5012980;28;20704;-38
2022/12/13 09:19:44;;;;;;;5.70;2.95;;;25.90;50.20;;;;;;5014926;28;20553;-38
2022/12/13 09:22:17;;;;;;;5.32;2.67;;;25.90;50.20;;;;;;5012771;28;20200;-38
2022/12/13 09:24:48;;;;;;;5.35;2.70;;;25.90;50.20;;;;;;5012926;28;20205;-39
2022/12/13 09:27:20;;;;;;;7.65;2.60;;;25.90;50.20;;;;;;5012132;28;20221;-42
2022/12/13 09:29:50;;;;;;;7.95;2.80;;;25.90;50.30;;;;;;5012260;28;20284;-38
2022/12/13 09:32:21;;;;;;;6.00;2.78;;;25.90;50.30;;;;;;5012151;28;20201;-41
2022/12/13 09:34:52;;;;;;;5.97;2.65;;;25.80;50.30;;;;;;5012161;28;20559;-38
2022/12/13 09:37:24;;;;;;;6.72;2.85;;;25.80;50.30;;;;;;5011870;28;20199;-38
2022/12/13 09:39:55;;;;;;;4.70;2.47;;;25.80;50.30;;;;;;5012176;28;20560;-40
2022/12/13 09:42:28;;;;;;;5.25;2.47;;;25.70;50.20;;;;;;5011152;28;20204;-38
2022/12/13 09:45:02;;;;;;;5.43;2.42;;;25.70;50.30;;;;;;5011721;28;20200;-38
2022/12/13 09:47:35;;;;;;;5.03;2.50;;;25.70;50.30;;;;;;5011951;28;20565;-38
2022/12/13 09:50:10;;;;;;;4.15;2.70;;;25.70;50.30;;;;;;5011531;28;20193;-39
2022/12/13 09:52:45;;;;;;;4.97;2.60;;;25.70;50.30;;;;;;5012090;28;20193;-38
2022/12/13 09:55:22;;;;;;;4.35;2.38;;;25.60;50.20;;;;;;5011177;28;20216;-38
2022/12/13 09:57:54;;;;;;;6.18;2.60;;;25.60;50.20;;;;;;5011061;28;20189;-38
2022/12/13 10:00:26;;;;;;;6.40;2.80;;;25.60;50.20;;;;;;5011054;28;20224;-40
2022/12/13 10:02:59;;;;;;;5.28;2.75;;;25.60;50.80;;;;;;5011727;28;20583;-38
2022/12/13 10:05:32;;;;;;;5.28;2.83;;;25.50;50.20;;;;;;5007415;28;20297;-38
2022/12/13 10:08:13;;;;;;;4.85;2.22;;;25.50;50.20;;;;;;5009527;28;20196;-38
2022/12/13 10:10:44;;;;;;;5.47;2.55;;;25.50;50.30;;;;;;5011721;28;20205;-40
2022/12/13 10:13:21;;;;;;;3.88;2.40;;;25.50;50.30;;;;;;5011628;28;20193;-40
2022/12/13 10:15:56;;;;;;;5.18;2.33;;;25.40;50.20;;;;;;4991546;28;20224;-40
2022/12/13 10:18:34;;;;;;;4.10;2.40;;;25.40;50.30;;;;;;4991379;28;20220;-46
2022/12/13 10:21:09;;;;;;;5.80;2.75;;;25.40;50.30;;;;;;4991839;28;20239;-39
2022/12/13 10:23:42;;;;;;;4.20;2.55;;;25.40;50.30;;;;;;5011268;28;20540;-39
2022/12/13 10:26:15;;;;;;;4.03;2.17;;;25.30;50.30;;;;;;5010889;28;20212;-38
2022/12/13 10:28:46;;;;;;;6.00;2.25;;;25.30;50.30;;;;;;5010717;28;20200;-38
2022/12/13 10:31:20;;;;;;;4.57;2.30;;;25.30;50.20;;;;;;5011800;28;20213;-39
2022/12/13 10:33:58;;;;;;;3.53;2.13;;;25.30;50.20;;;;;;5011821;28;20208;-43
2022/12/13 10:36:37;;;;;;;5.43;2.53;;;25.30;50.30;;;;;;5011948;28;20227;-38
2022/12/13 10:39:18;;;;;;;5.20;2.55;;;25.20;50.20;;;;;;5011633;28;20251;-38
2022/12/13 10:41:49;;;;;;;3.85;2.22;;;25.20;50.20;;;;;;5011725;28;20259;-38
2022/12/13 10:44:25;;;;;;;3.60;2.25;;;25.20;50.30;;;;;;5011868;28;20197;-38
2022/12/13 10:47:06;;;;;;;6.13;2.35;;;25.20;50.30;;;;;;5011768;28;20739;-38
2022/12/13 10:49:42;;;;;;;3.35;2.03;;;25.10;50.30;;;;;;5011496;28;20784;-38
2022/12/13 10:52:27;;;;;;;5.78;2.67;;;25.10;50.30;;;;;;5011443;28;20197;-38
2022/12/13 10:55:03;;;;;;;5.03;2.17;;;25.10;50.30;;;;;;5010225;28;20193;-38
2022/12/13 10:57:35;;;;;;;5.20;2.50;;;25.10;50.30;;;;;;5008771;28;20239;-38
2022/12/13 11:00:26;;;;;;;5.13;2.40;;;25.10;50.40;;;;;;5007299;28;20207;-39
2022/12/13 11:02:57;;;;;;;5.03;2.30;;;25.10;50.40;;;;;;5008751;28;20200;-41
2022/12/13 11:05:29;;;;;;;3.95;2.40;;;25.00;50.30;;;;;;5008275;28;20220;-38
2022/12/13 11:08:16;;;;;;;3.60;2.10;;;25.00;50.40;;;;;;5009685;28;20676;-39
2022/12/13 11:10:57;;;;;;;3.78;2.17;;;25.00;50.40;;;;;;5007922;28;20231;-38
2022/12/13 11:13:35;;;;;;;3.72;2.10;;;25.00;50.30;;;;;;5014772;28;20193;-38
2022/12/13 11:16:16;;;;;;;3.35;2.10;;;24.90;50.40;;;;;;5007432;28;20221;-38
2022/12/13 11:18:53;;;;;;;4.75;2.08;;;24.90;50.40;;;;;;5007849;28;20188;-38
2022/12/13 11:21:29;;;;;;;3.22;1.88;;;24.90;50.40;;;;;;5007609;28;20212;-38
2022/12/13 11:24:02;;;;;;;4.93;2.40;;;24.90;50.50;;;;;;5009691;28;20192;-38
2022/12/13 11:26:37;;;;;;;4.10;2.08;;;24.80;50.50;;;;;;5009576;28;20213;-38
2022/12/13 11:29:30;;;;;;;4.82;2.47;;;24.80;50.50;;;;;;5007152;28;20223;-39
2022/12/13 11:32:11;;;;;;;4.03;2.30;;;24.80;50.50;;;;;;5009541;28;20199;-39
2022/12/13 11:34:50;;;;;;;5.75;1.90;;;24.80;50.50;;;;;;5009920;28;20189;-40
2022/12/13 11:37:30;;;;;;;5.38;2.40;;;24.80;50.50;;;;;;5009476;28;20223;-40
2022/12/13 11:40:05;;;;;;;4.95;2.40;;;24.80;50.50;;;;;;5009390;28;20197;-41
2022/12/13 11:42:42;;;;;;;3.35;2.17;;;24.80;50.50;;;;;;5009496;28;20220;-39
2022/12/13 11:45:17;;;;;;;3.83;2.17;;;24.70;50.50;;;;;;5009412;28;20188;-38
2022/12/13 11:47:52;;;;;;;5.43;2.50;;;24.70;50.50;;;;;;5007394;28;20196;-38
2022/12/13 11:50:29;;;;;;;3.70;2.33;;;24.70;51.10;;;;;;5009234;28;20188;-38
2022/12/13 11:53:12;;;;;;;2.97;2.00;;;24.70;50.50;;;;;;5009288;28;20197;-39
2022/12/13 11:55:48;;;;;;;3.50;2.28;;;24.70;50.60;;;;;;5009349;28;20236;-38
2022/12/13 11:58:27;;;;;;;3.47;2.28;;;24.60;50.50;;;;;;5009393;28;20669;-40
2022/12/13 12:01:03;;;;;;;4.00;2.40;;;24.70;50.60;;;;;;5009342;28;20676;-43
2022/12/13 12:03:40;;;;;;;4.50;2.22;;;24.60;50.60;;;;;;5008263;28;20185;-43
2022/12/13 12:06:18;;;;;;;4.03;2.30;;;24.60;50.60;;;;;;5007613;28;20214;-40
2022/12/13 12:08:55;;;;;;;2.80;2.08;;;24.60;50.50;;;;;;5007358;28;20192;-41
2022/12/13 12:11:33;;;;;;;4.05;2.30;;;24.60;50.50;;;;;;5007058;28;20189;-40
2022/12/13 12:14:12;;;;;;;4.22;1.92;;;24.60;50.60;;;;;;5006914;28;20192;-42
2022/12/13 12:16:47;;;;;;;3.38;2.25;;;24.50;50.50;;;;;;5009320;28;20681;-40
2022/12/13 12:19:20;;;;;;;3.95;2.05;;;24.50;50.60;;;;;;5010005;28;20200;-40
2022/12/13 12:22:10;;;;;;;3.92;2.30;;;24.50;50.60;;;;;;5010171;28;20700;-42
2022/12/13 12:24:58;;;;;;;3.70;2.08;;;24.50;50.60;;;;;;5010578;28;20205;-41
2022/12/13 12:27:38;;;;;;;4.30;2.42;;;24.50;50.50;;;;;;5010072;28;20193;-41
2022/12/13 12:30:20;;;;;;;2.50;1.90;;;24.50;50.70;;;;;;5010643;28;20682;-41
2022/12/13 12:32:55;;;;;;;2.70;1.98;;;24.40;50.60;;;;;;5010273;28;20217;-40
2022/12/13 12:36:08;;;;;;;4.43;2.40;;;24.40;50.60;;;;;;5010886;28;20224;-40
2022/12/13 12:38:57;;;;;;;3.53;2.15;;;24.40;50.70;;;;;;4995494;28;20197;-40
2022/12/13 12:41:50;;;;;;;3.55;2.17;;;24.40;50.60;;;;;;5010796;28;20834;-40
2022/12/13 12:44:32;;;;;;;3.05;1.92;;;24.40;50.60;;;;;;5013724;28;20200;-40
2022/12/13 12:47:17;;;;;;;2.67;1.83;;;24.40;50.60;;;;;;5013706;28;20620;-40
2022/12/13 12:50:08;;;;;;;3.17;2.00;;;24.40;50.60;;;;;;5013622;28;20200;-40
2022/12/13 12:52:50;;;;;;;4.28;2.33;;;24.30;50.60;;;;;;5011274;28;20297;-40
2022/12/13 12:55:28;;;;;;;3.55;2.20;;;24.30;50.60;;;;;;5006299;28;20224;-40
2022/12/13 12:58:05;;;;;;;2.67;1.80;;;24.30;50.60;;;;;;5011470;28;20208;-40
2022/12/13 13:00:44;;;;;;;3.67;2.03;;;24.30;50.60;;;;;;5016152;28;20212;-40
2022/12/13 13:03:21;;;;;;;2.88;2.08;;;24.30;50.70;;;;;;5013460;28;20203;-41
2022/12/13 13:05:57;;;;;;;3.08;2.05;;;24.30;50.70;;;;;;5013349;28;20227;-41
2022/12/13 13:08:32;;;;;;;4.25;1.92;;;24.20;50.70;;;;;;5016032;28;20204;-40
2022/12/13 13:11:05;;;;;;;3.03;1.90;;;24.20;50.80;;;;;;5013558;28;20663;-40
2022/12/13 13:13:46;;;;;;;3.70;1.92;;;24.20;50.80;;;;;;5013370;28;20192;-41
2022/12/13 13:16:36;;;;;;;4.63;2.33;;;24.20;50.70;;;;;;5013396;28;20221;-40
2022/12/13 13:19:23;;;;;;;3.50;2.00;;;24.20;50.80;;;;;;5013072;28;20233;-40
2022/12/13 13:21:55;;;;;;;3.47;1.75;;;24.20;50.70;;;;;;5012692;28;20588;-40
2022/12/13 13:24:28;;;;;;;2.85;1.98;;;24.20;50.70;;;;;;5013168;28;20649;-40
2022/12/13 13:26:59;;;;;;;3.25;1.70;;;24.20;50.70;;;;;;5013221;28;20243;-43